Time;durP1;ratioP1;P1;durP2;ratioP2;P2;SDS_P1;SDS_P2;PMS_P1;PMS_P2;Temp;Humidity;BMP_temperature;BMP_pressure;BME280_temperature;BME280_humidity;BME280_pressure;Samples;Min_cycle;Max_cycle;Signal;HPM_P1;HPM_P2
2023/10/28 00:04:02;;;;;;;4.63;2.30;;;;;;;;;;10364189;28;20026;-63
2023/10/28 00:09:03;;;;;;;4.20;2.45;;;;;;;;;;10353075;28;20327;-64
2023/10/28 00:14:04;;;;;;;3.80;1.98;;;;;;;;;;10368488;28;20296;-63
2023/10/28 00:19:07;;;;;;;5.55;2.63;;;;;;;;;;10368504;28;20065;-63
2023/10/28 00:24:10;;;;;;;2.50;2.00;;;;;;;;;;10367350;28;20389;-63
2023/10/28 00:29:11;;;;;;;3.92;2.30;;;;;;;;;;10359869;28;20076;-63
2023/10/28 00:34:12;;;;;;;6.85;2.65;;;;;;;;;;10363291;28;20055;-60
2023/10/28 00:39:13;;;;;;;3.90;2.30;;;;;;;;;;10359697;28;20029;-59
2023/10/28 00:44:15;;;;;;;4.18;2.35;;;;;;;;;;10368730;28;20049;-60
2023/10/28 00:49:16;;;;;;;3.50;2.13;;;;;;;;;;10356871;28;20557;-63
2023/10/28 00:54:17;;;;;;;4.30;2.47;;;;;;;;;;10356247;28;20026;-63
2023/10/28 00:59:17;;;;;;;10.98;2.30;;;;;;;;;;10361196;28;20429;-64
2023/10/28 01:04:18;;;;;;;8.55;3.10;;;;;;;;;;10355006;28;20034;-64
2023/10/28 01:09:19;;;;;;;5.35;2.55;;;;;;;;;;10356976;28;20593;-64
2023/10/28 01:14:20;;;;;;;6.00;2.47;;;;;;;;;;10367087;28;20065;-64
2023/10/28 01:19:20;;;;;;;6.05;2.25;;;;;;;;;;10366712;28;20497;-64
2023/10/28 01:24:21;;;;;;;4.05;2.17;;;;;;;;;;10371476;28;20037;-64
2023/10/28 01:29:22;;;;;;;6.07;2.22;;;;;;;;;;10372350;28;20319;-60
2023/10/28 01:34:23;;;;;;;5.38;2.58;;;;;;;;;;10375491;28;20371;-64
2023/10/28 01:39:23;;;;;;;5.93;2.38;;;;;;;;;;10371191;28;20033;-63
2023/10/28 01:44:25;;;;;;;3.15;2.25;;;;;;;;;;10363598;28;20033;-65
2023/10/28 01:49:25;;;;;;;3.58;2.30;;;;;;;;;;10373336;28;20064;-64
2023/10/28 01:54:26;;;;;;;2.35;2.05;;;;;;;;;;10371197;28;20037;-59
2023/10/28 01:59:26;;;;;;;3.05;2.33;;;;;;;;;;10370956;28;20026;-61
2023/10/28 02:04:27;;;;;;;3.10;2.08;;;;;;;;;;10357939;28;20029;-61
2023/10/28 02:09:28;;;;;;;2.83;2.25;;;;;;;;;;10364104;28;20029;-59
2023/10/28 02:14:28;;;;;;;3.30;2.33;;;;;;;;;;10373895;28;20061;-59
2023/10/28 02:19:29;;;;;;;2.45;1.70;;;;;;;;;;10366448;28;20087;-59
2023/10/28 02:24:30;;;;;;;3.90;2.30;;;;;;;;;;10372143;28;20030;-60
2023/10/28 02:29:30;;;;;;;2.42;1.95;;;;;;;;;;10370341;28;20485;-60
2023/10/28 02:34:31;;;;;;;3.30;2.15;;;;;;;;;;10373793;28;20458;-60
2023/10/28 02:39:32;;;;;;;2.17;1.80;;;;;;;;;;10355609;28;20030;-64
2023/10/28 02:44:33;;;;;;;3.47;2.25;;;;;;;;;;10368139;28;20044;-65
2023/10/28 02:49:37;;;;;;;2.92;1.95;;;;;;;;;;10360572;28;20104;-64
2023/10/28 02:54:38;;;;;;;3.35;1.88;;;;;;;;;;10371872;28;20083;-64
2023/10/28 02:59:38;;;;;;;2.38;1.60;;;;;;;;;;10363865;28;20041;-63
2023/10/28 03:04:39;;;;;;;2.50;1.70;;;;;;;;;;10368722;28;20048;-64
2023/10/28 03:09:40;;;;;;;3.72;2.17;;;;;;;;;;10361874;28;20509;-64
2023/10/28 03:14:41;;;;;;;2.58;1.77;;;;;;;;;;10371072;28;20132;-64
2023/10/28 03:19:41;;;;;;;2.80;1.98;;;;;;;;;;10368369;28;20470;-64
2023/10/28 03:24:42;;;;;;;2.33;1.67;;;;;;;;;;10369872;28;20425;-65
2023/10/28 03:29:45;;;;;;;2.25;1.60;;;;;;;;;;10368817;28;20030;-63
2023/10/28 03:34:45;;;;;;;2.33;2.00;;;;;;;;;;10369965;28;20470;-66
2023/10/28 03:39:46;;;;;;;2.08;1.77;;;;;;;;;;10368906;28;20034;-65
2023/10/28 03:44:47;;;;;;;4.72;2.28;;;;;;;;;;10363548;28;20022;-65
2023/10/28 03:49:47;;;;;;;3.92;2.08;;;;;;;;;;10371030;28;20022;-64
2023/10/28 03:54:48;;;;;;;5.00;2.17;;;;;;;;;;10357569;28;20026;-64
2023/10/28 03:59:49;;;;;;;4.35;2.13;;;;;;;;;;10368760;28;20048;-66
2023/10/28 04:04:50;;;;;;;2.40;2.03;;;;;;;;;;10368992;28;20030;-65
2023/10/28 04:09:50;;;;;;;2.90;1.83;;;;;;;;;;10367532;28;20466;-65
2023/10/28 04:14:51;;;;;;;2.05;1.80;;;;;;;;;;10368012;28;20046;-64
2023/10/28 04:19:51;;;;;;;6.15;1.75;;;;;;;;;;10365162;28;20516;-65
2023/10/28 04:24:53;;;;;;;1.83;1.70;;;;;;;;;;10351530;28;20037;-64
2023/10/28 04:29:53;;;;;;;10.20;1.63;;;;;;;;;;10357536;28;20046;-64
2023/10/28 04:34:54;;;;;;;2.55;1.70;;;;;;;;;;10356309;28;20061;-64
2023/10/28 04:39:54;;;;;;;3.80;1.70;;;;;;;;;;10345253;28;20038;-66
2023/10/28 04:44:55;;;;;;;2.13;1.80;;;;;;;;;;10359857;28;20034;-65
2023/10/28 04:49:56;;;;;;;5.57;1.80;;;;;;;;;;10351829;28;20034;-65
2023/10/28 04:54:56;;;;;;;2.17;1.65;;;;;;;;;;10358734;28;20030;-66
2023/10/28 04:59:57;;;;;;;3.03;1.60;;;;;;;;;;10375137;28;20417;-65
2023/10/28 05:04:57;;;;;;;2.15;1.75;;;;;;;;;;10368613;28;20046;-65
2023/10/28 05:09:58;;;;;;;1.63;1.52;;;;;;;;;;10357077;28;20033;-66
2023/10/28 05:14:59;;;;;;;2.85;2.20;;;;;;;;;;10375946;28;20104;-65
2023/10/28 05:19:59;;;;;;;2.08;1.70;;;;;;;;;;10365176;28;20713;-64
2023/10/28 05:25:00;;;;;;;2.15;1.35;;;;;;;;;;10368094;28;20409;-65
2023/10/28 05:30:01;;;;;;;2.22;1.60;;;;;;;;;;10366216;28;20041;-62
2023/10/28 05:35:02;;;;;;;3.17;2.10;;;;;;;;;;10350882;28;20037;-63
2023/10/28 05:40:13;;;;;;;1.52;1.30;;;;;;;;;;10353613;28;20046;-65
2023/10/28 05:45:14;;;;;;;2.50;2.00;;;;;;;;;;10369024;28;20167;-65
2023/10/28 05:50:14;;;;;;;1.95;1.63;;;;;;;;;;10370407;28;20371;-66
2023/10/28 05:55:15;;;;;;;2.60;1.65;;;;;;;;;;10364400;28;20053;-66
2023/10/28 06:00:16;;;;;;;4.20;1.63;;;;;;;;;;10369650;28;20022;-66
2023/10/28 06:05:17;;;;;;;3.83;2.00;;;;;;;;;;10366648;28;20591;-66
2023/10/28 06:10:17;;;;;;;2.10;1.60;;;;;;;;;;10367346;28;20034;-64
2023/10/28 06:15:18;;;;;;;2.42;1.70;;;;;;;;;;10367547;28;20108;-65
2023/10/28 06:20:20;;;;;;;1.85;1.67;;;;;;;;;;10372514;28;20030;-65
2023/10/28 06:25:20;;;;;;;2.03;1.60;;;;;;;;;;10368148;28;20394;-65
2023/10/28 06:30:21;;;;;;;3.33;1.52;;;;;;;;;;10351804;28;20037;-64
2023/10/28 06:35:21;;;;;;;2.67;1.98;;;;;;;;;;10363417;28;20084;-62
2023/10/28 06:40:22;;;;;;;1.55;1.45;;;;;;;;;;10371042;28;20037;-62
2023/10/28 06:45:23;;;;;;;2.20;1.70;;;;;;;;;;10365579;28;20033;-65
2023/10/28 06:50:24;;;;;;;1.83;1.70;;;;;;;;;;10371703;28;20036;-60
2023/10/28 06:55:24;;;;;;;4.53;1.77;;;;;;;;;;10369140;28;20567;-64
2023/10/28 07:00:28;;;;;;;3.83;1.38;;;;;;;;;;10370480;28;20022;-60
2023/10/28 07:05:28;;;;;;;4.63;1.35;;;;;;;;;;10369308;28;20482;-65
2023/10/28 07:10:29;;;;;;;2.65;2.03;;;;;;;;;;10374212;28;20041;-60
2023/10/28 07:15:29;;;;;;;2.22;1.40;;;;;;;;;;10369013;28;20104;-60
2023/10/28 07:20:30;;;;;;;3.47;1.40;;;;;;;;;;10367229;28;20037;-62
2023/10/28 07:25:30;;;;;;;1.52;1.42;;;;;;;;;;10356778;28;20029;-60
2023/10/28 07:30:32;;;;;;;1.67;1.50;;;;;;;;;;10370292;28;20025;-59
2023/10/28 07:35:33;;;;;;;3.05;1.50;;;;;;;;;;10357114;28;20081;-64
2023/10/28 07:40:34;;;;;;;3.03;1.30;;;;;;;;;;10370593;28;20696;-58
2023/10/28 07:45:34;;;;;;;1.42;1.33;;;;;;;;;;10353184;28;20026;-60
2023/10/28 07:50:36;;;;;;;3.03;1.80;;;;;;;;;;10357788;28;20107;-64
2023/10/28 07:55:38;;;;;;;1.92;1.70;;;;;;;;;;10357248;28;20091;-63
2023/10/28 08:00:38;;;;;;;1.88;1.55;;;;;;;;;;10366323;28;20117;-63
2023/10/28 08:05:39;;;;;;;1.58;1.48;;;;;;;;;;10349789;28;20493;-59
2023/10/28 08:10:40;;;;;;;2.20;1.70;;;;;;;;;;10363486;28;20108;-59
2023/10/28 08:15:41;;;;;;;3.20;1.50;;;;;;;;;;10346578;28;20088;-58
2023/10/28 08:20:44;;;;;;;2.97;1.50;;;;;;;;;;10366315;28;20544;-60
2023/10/28 08:25:46;;;;;;;2.90;1.58;;;;;;;;;;10360934;28;20061;-62
2023/10/28 08:30:47;;;;;;;1.80;1.50;;;;;;;;;;10364107;28;20033;-63
2023/10/28 08:35:48;;;;;;;6.78;3.75;;;;;;;;;;10360906;28;20056;-61
2023/10/28 08:40:50;;;;;;;14.75;3.92;;;;;;;;;;10363385;28;20026;-60
2023/10/28 08:45:51;;;;;;;9.63;3.75;;;;;;;;;;10360386;28;20100;-63
2023/10/28 08:51:00;;;;;;;9.60;3.38;;;;;;;;;;10357262;28;20038;-63
2023/10/28 08:56:02;;;;;;;8.73;3.35;;;;;;;;;;10359530;28;20038;-60
2023/10/28 09:01:03;;;;;;;7.53;3.58;;;;;;;;;;10361177;28;20033;-59
2023/10/28 09:06:04;;;;;;;6.65;3.03;;;;;;;;;;10338085;28;20025;-60
2023/10/28 09:11:05;;;;;;;4.97;3.10;;;;;;;;;;10355479;28;20030;-60
2023/10/28 09:16:05;;;;;;;2.90;2.60;;;;;;;;;;10352736;28;20038;-59
2023/10/28 09:21:10;;;;;;;5.03;2.80;;;;;;;;;;10361539;28;20030;-59
2023/10/28 09:26:11;;;;;;;5.90;2.63;;;;;;;;;;10364217;28;20038;-60
2023/10/28 09:31:12;;;;;;;3.83;2.67;;;;;;;;;;10355325;28;20445;-59
2023/10/28 09:36:13;;;;;;;3.75;2.30;;;;;;;;;;10361612;28;20088;-58
2023/10/28 09:41:14;;;;;;;4.88;2.53;;;;;;;;;;10352429;28;20030;-58
2023/10/28 09:46:21;;;;;;;2.33;2.03;;;;;;;;;;10363882;28;20056;-59
2023/10/28 09:51:24;;;;;;;2.50;2.30;;;;;;;;;;10364254;28;20037;-58
2023/10/28 09:56:33;;;;;;;4.40;2.40;;;;;;;;;;10365732;28;20145;-59
2023/10/28 10:02:33;;;;;;;2.47;1.90;;;;;;;;;;10366805;28;21157;-63
2023/10/28 10:07:45;;;;;;;3.45;1.90;;;;;;;;;;10355026;28;20065;-61
2023/10/28 10:12:50;;;;;;;5.22;2.15;;;;;;;;;;10362067;28;20034;-63
2023/10/28 10:18:07;;;;;;;5.05;2.08;;;;;;;;;;10359516;28;20397;-63
2023/10/28 10:23:09;;;;;;;2.70;1.70;;;;;;;;;;10361453;28;20049;-60
2023/10/28 10:28:14;;;;;;;2.35;1.88;;;;;;;;;;10364461;28;20041;-60
2023/10/28 10:33:26;;;;;;;2.22;2.03;;;;;;;;;;10347106;28;20085;-60
2023/10/28 10:38:29;;;;;;;3.72;1.88;;;;;;;;;;10365696;28;20038;-59
2023/10/28 10:43:31;;;;;;;2.67;1.85;;;;;;;;;;10356800;28;20034;-59
2023/10/28 10:48:33;;;;;;;3.75;1.70;;;;;;;;;;10355506;28;20101;-58
2023/10/28 10:53:43;;;;;;;4.00;1.75;;;;;;;;;;10353436;28;20091;-59
2023/10/28 10:58:44;;;;;;;5.13;1.90;;;;;;;;;;10369018;28;20117;-60
2023/10/28 11:03:44;;;;;;;2.67;1.92;;;;;;;;;;10370409;28;20022;-61
2023/10/28 11:08:45;;;;;;;3.40;2.13;;;;;;;;;;10361652;28;20033;-59
2023/10/28 11:13:46;;;;;;;3.35;2.20;;;;;;;;;;10356177;28;20493;-58
2023/10/28 11:18:48;;;;;;;10.63;2.60;;;;;;;;;;10352513;28;20048;-59
2023/10/28 11:23:50;;;;;;;7.43;2.35;;;;;;;;;;10357556;28;20026;-59
2023/10/28 11:28:52;;;;;;;3.47;2.03;;;;;;;;;;10354280;28;20498;-59
2023/10/28 11:33:56;;;;;;;6.00;2.17;;;;;;;;;;10364358;28;20036;-59
2023/10/28 11:39:11;;;;;;;3.35;1.80;;;;;;;;;;10365252;28;20124;-58
2023/10/28 11:44:11;;;;;;;3.28;1.60;;;;;;;;;;10362201;28;20017;-60
2023/10/28 11:49:12;;;;;;;3.78;1.90;;;;;;;;;;10366545;28;20045;-62
2023/10/28 11:54:13;;;;;;;3.47;1.92;;;;;;;;;;10351030;28;20033;-59
2023/10/28 11:59:14;;;;;;;3.10;1.80;;;;;;;;;;10341707;28;20108;-59
2023/10/28 12:04:15;;;;;;;3.70;1.90;;;;;;;;;;10339257;28;20029;-60
2023/10/28 12:09:15;;;;;;;4.55;1.90;;;;;;;;;;10340148;28;20026;-58
2023/10/28 12:14:16;;;;;;;2.45;1.90;;;;;;;;;;10347572;28;20043;-62
2023/10/28 12:19:17;;;;;;;3.05;1.70;;;;;;;;;;10342895;28;20049;-62
2023/10/28 12:24:19;;;;;;;6.93;1.85;;;;;;;;;;10344027;28;20050;-61
2023/10/28 12:29:21;;;;;;;3.40;2.35;;;;;;;;;;10335548;28;20030;-62
2023/10/28 12:34:22;;;;;;;5.72;2.35;;;;;;;;;;10347885;28;20022;-59
2023/10/28 12:39:22;;;;;;;54.88;3.20;;;;;;;;;;10338030;28;20239;-59
2023/10/28 12:44:23;;;;;;;25.33;3.08;;;;;;;;;;10334807;28;20049;-57
2023/10/28 12:49:23;;;;;;;38.88;3.17;;;;;;;;;;10344564;28;20437;-66
2023/10/28 12:54:24;;;;;;;22.33;3.05;;;;;;;;;;10333076;28;20057;-64
2023/10/28 12:59:27;;;;;;;37.30;3.50;;;;;;;;;;10341748;28;20026;-57
2023/10/28 13:04:28;;;;;;;23.65;3.58;;;;;;;;;;10353343;28;20038;-58
2023/10/28 13:09:28;;;;;;;19.10;3.38;;;;;;;;;;10360480;28;20025;-65
2023/10/28 13:14:29;;;;;;;21.00;3.65;;;;;;;;;;10366072;28;20046;-66
2023/10/28 13:19:30;;;;;;;18.95;3.78;;;;;;;;;;10372514;28;20045;-59
2023/10/28 13:24:30;;;;;;;11.30;2.33;;;;;;;;;;10355204;28;20041;-57
2023/10/28 13:29:31;;;;;;;20.08;3.80;;;;;;;;;;10356672;28;20030;-61
2023/10/28 13:34:32;;;;;;;7.93;2.63;;;;;;;;;;10366251;28;20026;-57
2023/10/28 13:39:33;;;;;;;5.88;2.45;;;;;;;;;;10372309;28;20045;-65
2023/10/28 13:44:33;;;;;;;6.65;2.10;;;;;;;;;;10345576;28;20034;-64
2023/10/28 13:49:34;;;;;;;7.28;2.33;;;;;;;;;;10328210;28;20094;-58
2023/10/28 13:54:35;;;;;;;10.68;3.03;;;;;;;;;;10364927;28;20033;-65
2023/10/28 13:59:36;;;;;;;5.63;2.60;;;;;;;;;;10366900;28;20052;-66
2023/10/28 14:04:41;;;;;;;7.50;3.03;;;;;;;;;;10369703;28;20026;-64
2023/10/28 14:09:42;;;;;;;8.68;2.95;;;;;;;;;;10361568;28;20045;-57
2023/10/28 14:14:43;;;;;;;2.85;1.75;;;;;;;;;;10366028;28;20050;-59
2023/10/28 14:19:44;;;;;;;6.68;2.45;;;;;;;;;;10352480;28;20030;-57
2023/10/28 14:24:45;;;;;;;6.40;2.10;;;;;;;;;;10360071;28;20100;-64
2023/10/28 14:29:46;;;;;;;15.32;2.50;;;;;;;;;;10360307;28;20037;-57
2023/10/28 14:34:48;;;;;;;5.53;1.98;;;;;;;;;;10367797;28;20481;-59
2023/10/28 14:39:49;;;;;;;8.15;2.35;;;;;;;;;;10359546;28;20034;-58
2023/10/28 14:44:51;;;;;;;2.45;1.80;;;;;;;;;;10360840;28;20025;-60
2023/10/28 14:49:53;;;;;;;3.38;1.92;;;;;;;;;;10359143;28;20029;-58
2023/10/28 14:54:54;;;;;;;5.63;2.22;;;;;;;;;;10365777;28;20078;-57
2023/10/28 14:59:57;;;;;;;9.02;1.95;;;;;;;;;;10349091;28;20601;-57
2023/10/28 15:04:58;;;;;;;5.10;2.22;;;;;;;;;;10362423;28;20036;-57
2023/10/28 15:09:58;;;;;;;6.93;2.25;;;;;;;;;;10357529;28;20030;-58
2023/10/28 15:14:59;;;;;;;7.65;2.22;;;;;;;;;;10353450;28;20037;-57
2023/10/28 15:20:00;;;;;;;6.22;1.92;;;;;;;;;;10356180;28;20563;-58
2023/10/28 15:25:01;;;;;;;8.05;2.28;;;;;;;;;;10347552;28;20057;-61
2023/10/28 15:30:02;;;;;;;9.30;1.98;;;;;;;;;;10370574;28;20029;-60
2023/10/28 15:35:07;;;;;;;4.63;2.10;;;;;;;;;;10351698;28;20500;-59
2023/10/28 15:40:15;;;;;;;9.90;2.00;;;;;;;;;;10332681;28;20460;-58
2023/10/28 15:45:16;;;;;;;6.50;1.97;;;;;;;;;;10362610;28;20022;-60
2023/10/28 15:50:17;;;;;;;5.03;1.70;;;;;;;;;;10368629;28;20030;-58
2023/10/28 15:55:18;;;;;;;6.13;1.90;;;;;;;;;;10366774;28;20033;-59
2023/10/28 16:00:18;;;;;;;5.25;1.80;;;;;;;;;;10349135;28;20508;-58
2023/10/28 16:05:19;;;;;;;4.28;1.75;;;;;;;;;;10314268;28;20015;-66
2023/10/28 16:10:20;;;;;;;4.32;2.33;;;;;;;;;;10361373;28;20026;-58
2023/10/28 16:15:20;;;;;;;1.90;1.52;;;;;;;;;;10365715;28;20126;-60
2023/10/28 16:20:21;;;;;;;7.22;1.90;;;;;;;;;;10343549;28;20021;-58
2023/10/28 16:25:22;;;;;;;6.35;2.13;;;;;;;;;;10356816;28;20045;-58
2023/10/28 16:30:23;;;;;;;8.32;2.10;;;;;;;;;;10362637;28;20043;-60
2023/10/28 16:35:24;;;;;;;8.57;2.17;;;;;;;;;;10366663;28;20022;-60
2023/10/28 16:40:24;;;;;;;2.55;1.55;;;;;;;;;;10352708;28;20110;-57
2023/10/28 16:45:30;;;;;;;9.02;1.95;;;;;;;;;;10364844;28;20445;-58
2023/10/28 16:50:32;;;;;;;7.25;1.92;;;;;;;;;;10349961;28;20022;-58
2023/10/28 16:55:33;;;;;;;7.95;2.03;;;;;;;;;;10348783;28;20038;-62
2023/10/28 17:00:35;;;;;;;11.23;2.20;;;;;;;;;;10338503;28;20058;-58
2023/10/28 17:05:35;;;;;;;4.63;2.05;;;;;;;;;;10363214;28;20100;-65
2023/10/28 17:10:36;;;;;;;7.93;2.05;;;;;;;;;;10359242;28;20128;-60
2023/10/28 17:15:47;;;;;;;13.13;2.63;;;;;;;;;;10364752;28;20516;-58
2023/10/28 17:20:55;;;;;;;11.02;2.10;;;;;;;;;;10356615;28;20049;-58
2023/10/28 17:25:56;;;;;;;8.20;2.00;;;;;;;;;;10355027;28;20401;-59
2023/10/28 17:30:58;;;;;;;12.35;2.28;;;;;;;;;;10363610;28;20026;-59
2023/10/28 17:35:59;;;;;;;7.30;2.22;;;;;;;;;;10362722;28;20038;-58
2023/10/28 17:41:10;;;;;;;11.63;2.90;;;;;;;;;;10365469;28;20040;-60
2023/10/28 17:46:13;;;;;;;9.65;2.75;;;;;;;;;;10360486;28;20041;-58
2023/10/28 17:51:19;;;;;;;16.25;2.67;;;;;;;;;;10351723;28;20021;-59
2023/10/28 17:56:20;;;;;;;9.45;2.17;;;;;;;;;;10364374;28;20033;-58
2023/10/28 18:01:21;;;;;;;6.35;2.15;;;;;;;;;;10366259;28;20580;-58
2023/10/28 18:06:21;;;;;;;9.00;2.33;;;;;;;;;;10368996;28;20038;-58
2023/10/28 18:11:22;;;;;;;7.82;2.67;;;;;;;;;;10373778;28;20038;-58
2023/10/28 18:16:22;;;;;;;11.27;3.53;;;;;;;;;;10368002;28;20029;-58
2023/10/28 18:21:23;;;;;;;11.55;2.88;;;;;;;;;;10371747;28;20597;-63
2023/10/28 18:26:24;;;;;;;5.93;2.50;;;;;;;;;;10361642;28;20038;-58
2023/10/28 18:31:24;;;;;;;10.70;2.50;;;;;;;;;;10372457;28;20033;-58
2023/10/28 18:36:25;;;;;;;9.98;2.60;;;;;;;;;;10354995;28;20386;-62
2023/10/28 18:41:26;;;;;;;9.07;2.42;;;;;;;;;;10363815;28;20026;-61
2023/10/28 18:46:26;;;;;;;6.90;2.53;;;;;;;;;;10373349;28;20030;-55
2023/10/28 18:51:27;;;;;;;3.97;2.25;;;;;;;;;;10357469;28;20022;-55
2023/10/28 18:56:28;;;;;;;12.77;2.67;;;;;;;;;;10345997;28;20136;-55
2023/10/28 19:01:29;;;;;;;10.55;2.50;;;;;;;;;;10356735;28;20108;-54
2023/10/28 19:06:29;;;;;;;3.83;2.08;;;;;;;;;;10361206;28;20053;-54
2023/10/28 19:11:30;;;;;;;7.80;2.33;;;;;;;;;;10351736;28;20057;-68
2023/10/28 19:16:32;;;;;;;7.53;2.20;;;;;;;;;;10356265;28;20044;-56
2023/10/28 19:21:33;;;;;;;5.97;2.08;;;;;;;;;;10367874;28;20064;-57
2023/10/28 19:26:34;;;;;;;5.40;2.40;;;;;;;;;;10368060;28;20025;-54
2023/10/28 19:31:34;;;;;;;4.07;1.73;;;;;;;;;;10365322;28;20492;-55
2023/10/28 19:36:35;;;;;;;7.30;2.78;;;;;;;;;;10358014;28;20552;-55
2023/10/28 19:41:36;;;;;;;4.35;2.00;;;;;;;;;;10344732;28;20025;-54
2023/10/28 19:46:36;;;;;;;4.35;2.00;;;;;;;;;;10348632;28;20429;-54
2023/10/28 19:51:37;;;;;;;4.07;2.08;;;;;;;;;;10364598;28;20411;-53
2023/10/28 19:56:38;;;;;;;3.50;2.03;;;;;;;;;;10356425;28;20034;-54
2023/10/28 20:01:38;;;;;;;5.13;2.20;;;;;;;;;;10360546;28;20037;-53
2023/10/28 20:06:43;;;;;;;7.38;1.95;;;;;;;;;;10359898;28;20528;-65
2023/10/28 20:11:44;;;;;;;6.97;2.65;;;;;;;;;;10366397;28;20446;-54
2023/10/28 20:16:45;;;;;;;3.97;2.20;;;;;;;;;;10354229;28;20092;-54
2023/10/28 20:21:45;;;;;;;7.10;2.15;;;;;;;;;;10354678;28;20050;-53
2023/10/28 20:26:46;;;;;;;3.00;1.80;;;;;;;;;;10351973;28;20026;-53
2023/10/28 20:31:46;;;;;;;8.07;2.03;;;;;;;;;;10363680;28;20026;-54
2023/10/28 20:36:47;;;;;;;4.80;1.90;;;;;;;;;;10354229;28;20554;-63
2023/10/28 20:41:48;;;;;;;3.33;1.77;;;;;;;;;;10373010;28;20033;-54
2023/10/28 20:46:48;;;;;;;7.30;1.98;;;;;;;;;;10367030;28;20029;-59
2023/10/28 20:51:52;;;;;;;3.30;2.00;;;;;;;;;;10353414;28;20030;-51
2023/10/28 20:56:53;;;;;;;6.93;2.30;;;;;;;;;;10365599;28;20037;-59
2023/10/28 21:01:54;;;;;;;4.38;2.42;;;;;;;;;;10354249;28;20397;-64
2023/10/28 21:06:55;;;;;;;3.80;2.15;;;;;;;;;;10352115;28;20409;-52
2023/10/28 21:11:55;;;;;;;2.88;1.90;;;;;;;;;;10357204;28;20044;-54
2023/10/28 21:16:56;;;;;;;5.63;2.22;;;;;;;;;;10346484;28;20478;-50
2023/10/28 21:21:57;;;;;;;4.78;2.10;;;;;;;;;;10354689;28;20482;-53
2023/10/28 21:26:58;;;;;;;4.53;2.20;;;;;;;;;;10348961;28;20088;-54
2023/10/28 21:32:02;;;;;;;3.08;2.00;;;;;;;;;;10366855;28;20096;-60
2023/10/28 21:37:03;;;;;;;3.65;1.80;;;;;;;;;;10357246;28;20120;-61
2023/10/28 21:42:04;;;;;;;6.10;1.98;;;;;;;;;;10379311;28;20032;-57
2023/10/28 21:47:04;;;;;;;2.63;2.05;;;;;;;;;;10368129;28;20057;-54
2023/10/28 21:52:05;;;;;;;5.10;1.85;;;;;;;;;;10369813;28;20041;-67
2023/10/28 21:57:06;;;;;;;3.20;1.65;;;;;;;;;;10367866;28;20034;-66
2023/10/28 22:02:10;;;;;;;2.65;2.10;;;;;;;;;;10350440;28;20035;-63
2023/10/28 22:07:11;;;;;;;3.13;1.85;;;;;;;;;;10363589;28;20038;-56
2023/10/28 22:12:12;;;;;;;5.25;2.10;;;;;;;;;;10345453;28;20093;-59
2023/10/28 22:17:13;;;;;;;3.53;1.88;;;;;;;;;;10346481;28;20032;-60
2023/10/28 22:22:13;;;;;;;6.18;2.10;;;;;;;;;;10350341;28;20022;-54
2023/10/28 22:27:14;;;;;;;2.58;1.80;;;;;;;;;;10359868;28;20033;-69
2023/10/28 22:32:14;;;;;;;3.72;2.22;;;;;;;;;;10360939;28;20034;-56
2023/10/28 22:37:15;;;;;;;12.13;2.22;;;;;;;;;;10366043;28;20026;-54
2023/10/28 22:42:15;;;;;;;4.18;2.08;;;;;;;;;;10364360;28;20029;-57
2023/10/28 22:47:16;;;;;;;4.95;2.90;;;;;;;;;;10371316;28;20056;-55
2023/10/28 22:52:17;;;;;;;6.35;2.65;;;;;;;;;;10367836;28;20030;-57
2023/10/28 22:57:18;;;;;;;7.18;3.13;;;;;;;;;;10369247;28;20041;-56
2023/10/28 23:02:18;;;;;;;4.35;2.83;;;;;;;;;;10366983;28;20033;-57
2023/10/28 23:07:19;;;;;;;5.38;2.65;;;;;;;;;;10365748;28;20044;-51
2023/10/28 23:12:19;;;;;;;7.07;3.03;;;;;;;;;;10368952;28;20092;-58
2023/10/28 23:17:20;;;;;;;3.90;2.88;;;;;;;;;;10367993;28;20444;-61
2023/10/28 23:22:21;;;;;;;5.05;3.03;;;;;;;;;;10362950;28;20028;-60
2023/10/28 23:27:22;;;;;;;3.95;3.00;;;;;;;;;;10364197;28;20041;-60
2023/10/28 23:32:23;;;;;;;10.80;3.40;;;;;;;;;;10366525;28;20037;-60
2023/10/28 23:37:24;;;;;;;8.55;3.42;;;;;;;;;;10368289;28;20026;-61
2023/10/28 23:42:25;;;;;;;5.30;3.60;;;;;;;;;;10364595;28;20083;-64
2023/10/28 23:47:25;;;;;;;5.78;3.35;;;;;;;;;;10369036;28;20068;-60
2023/10/28 23:52:26;;;;;;;10.98;4.10;;;;;;;;;;10357464;28;20500;-60
2023/10/28 23:57:26;;;;;;;6.45;3.95;;;;;;;;;;10365311;28;20030;-59
